createdAt,value
2023-05-05T00:01:03.624Z,63.14
2023-05-05T00:03:33.567Z,65.47
2023-05-05T00:06:01.496Z,63.43
2023-05-05T00:08:29.363Z,62.24
2023-05-05T00:10:57.757Z,61.89
2023-05-05T00:13:25.792Z,63.54
2023-05-05T00:15:54.132Z,63.71
2023-05-05T00:18:22.299Z,62.79
2023-05-05T00:20:50.719Z,62.95
2023-05-05T00:23:19.757Z,62.76
2023-05-05T00:25:47.696Z,63.01
2023-05-05T00:28:15.495Z,62.39
2023-05-05T00:30:43.477Z,62.66
2023-05-05T00:33:11.480Z,63.00
2023-05-05T00:35:39.306Z,62.84
2023-05-05T00:38:07.527Z,62.92
2023-05-05T00:40:36.105Z,62.68
2023-05-05T00:43:04.009Z,63.35
2023-05-05T00:45:31.876Z,63.05
2023-05-05T00:48:01.941Z,62.93
2023-05-05T00:50:31.516Z,62.41
2023-05-05T00:53:03.446Z,62.56
2023-05-05T00:55:33.109Z,62.67
2023-05-05T00:58:04.294Z,62.97
2023-05-05T01:00:32.404Z,63.00
2023-05-05T01:03:00.685Z,63.40
2023-05-05T01:05:44.947Z,63.20
2023-05-05T01:08:27.487Z,62.81
2023-05-05T01:11:26.340Z,62.92
2023-05-05T01:14:20.839Z,63.13
2023-05-05T01:17:04.981Z,63.20
2023-05-05T01:19:54.702Z,63.25
2023-05-05T01:22:32.339Z,61.81
2023-05-05T01:25:12.338Z,61.15
2023-05-05T01:28:29.299Z,61.07
2023-05-05T01:31:17.778Z,61.74
2023-05-05T01:33:55.269Z,61.42
2023-05-05T01:36:36.294Z,60.81
2023-05-05T01:39:08.470Z,61.64
2023-05-05T01:41:47.374Z,62.72
2023-05-05T01:44:20.034Z,61.39
2023-05-05T01:46:52.055Z,60.03
2023-05-05T01:49:20.678Z,58.36
2023-05-05T01:51:50.046Z,58.82
2023-05-05T01:54:19.365Z,60.61
2023-05-05T01:56:50.749Z,63.21
2023-05-05T01:59:21.857Z,64.58
2023-05-05T02:01:52.423Z,63.03
2023-05-05T02:04:22.994Z,61.65
2023-05-05T02:06:53.499Z,61.93
2023-05-05T02:09:25.433Z,62.32
2023-05-05T02:11:55.524Z,62.57
2023-05-05T02:14:26.930Z,63.40
2023-05-05T02:16:58.175Z,63.84
2023-05-05T02:19:34.482Z,64.78
2023-05-05T02:22:03.263Z,65.10
2023-05-05T02:24:31.587Z,64.93
2023-05-05T02:27:03.908Z,65.07
2023-05-05T02:29:39.252Z,65.13
2023-05-05T02:32:23.836Z,65.04
2023-05-05T02:34:54.490Z,63.44
2023-05-05T02:37:28.880Z,62.65
2023-05-05T02:40:05.030Z,61.48
2023-05-05T02:42:37.392Z,60.08
2023-05-05T02:45:12.534Z,58.14
2023-05-05T02:47:40.467Z,57.64
2023-05-05T02:50:09.818Z,59.85
2023-05-05T02:52:38.341Z,60.97
2023-05-05T02:55:07.379Z,61.98
2023-05-05T02:57:48.655Z,63.64
2023-05-05T03:00:38.375Z,64.29
2023-05-05T03:03:22.390Z,61.61
2023-05-05T03:06:13.912Z,56.90
2023-05-05T03:09:11.226Z,56.59
2023-05-05T03:11:47.117Z,57.63
2023-05-05T03:14:19.286Z,59.35
2023-05-05T03:16:49.476Z,59.53
2023-05-05T03:19:20.470Z,60.48
2023-05-05T03:21:48.690Z,60.81
2023-05-05T03:24:19.505Z,62.72
2023-05-05T03:26:49.546Z,62.35
2023-05-05T03:29:17.688Z,61.97
2023-05-05T03:31:45.915Z,57.37
2023-05-05T03:34:13.760Z,55.97
2023-05-05T03:36:41.670Z,56.18
2023-05-05T03:39:09.473Z,56.83
2023-05-05T03:41:37.333Z,58.04
2023-05-05T03:44:05.256Z,58.58
2023-05-05T03:46:33.031Z,59.48
2023-05-05T03:49:03.441Z,59.09
2023-05-05T03:51:31.455Z,58.68
2023-05-05T03:53:59.196Z,58.08
2023-05-05T03:56:27.137Z,57.15
2023-05-05T03:58:54.992Z,56.49
2023-05-05T04:01:23.664Z,55.67
2023-05-05T04:03:52.040Z,54.65
2023-05-05T04:06:20.145Z,52.47
2023-05-05T04:08:48.040Z,51.43
2023-05-05T04:11:16.225Z,50.73
2023-05-05T04:13:44.096Z,49.20
2023-05-05T04:16:12.214Z,48.44
2023-05-05T04:18:40.002Z,47.08
2023-05-05T04:21:07.863Z,46.65
2023-05-05T04:23:35.815Z,45.66
2023-05-05T04:26:03.680Z,45.28
2023-05-05T04:28:31.481Z,44.47
2023-05-05T04:31:01.245Z,43.99
2023-05-05T04:33:29.156Z,42.85
2023-05-05T04:35:57.023Z,42.62
2023-05-05T04:38:24.991Z,43.06
2023-05-05T04:40:52.835Z,44.17
2023-05-05T04:43:21.090Z,46.01
2023-05-05T04:45:55.953Z,47.52
2023-05-05T04:48:23.940Z,48.56
2023-05-05T04:50:51.955Z,49.37
2023-05-05T04:53:19.749Z,49.75
2023-05-05T04:55:47.613Z,50.14
2023-05-05T04:58:15.439Z,50.47
2023-05-05T05:00:43.610Z,50.38
2023-05-05T05:03:11.686Z,49.98
2023-05-05T05:05:39.564Z,49.24
2023-05-05T05:08:07.380Z,47.69
2023-05-05T05:10:36.103Z,45.91
2023-05-05T05:13:04.046Z,44.03
2023-05-05T05:15:31.915Z,42.41
2023-05-05T05:17:59.706Z,40.63
2023-05-05T05:20:27.541Z,39.44
2023-05-05T05:22:55.433Z,39.61
2023-05-05T05:25:24.402Z,39.54
2023-05-05T05:28:02.187Z,39.54
2023-05-05T05:30:37.267Z,39.38
2023-05-05T05:33:05.122Z,40.45
2023-05-05T05:35:32.996Z,41.41
2023-05-05T05:38:00.834Z,41.80
2023-05-05T05:40:28.757Z,41.99
2023-05-05T05:42:56.515Z,42.09
2023-05-05T05:45:24.341Z,42.60
2023-05-05T05:47:52.285Z,44.29
2023-05-05T05:50:21.351Z,45.32
2023-05-05T05:52:49.388Z,45.30
2023-05-05T05:55:17.350Z,44.96
2023-05-05T05:57:45.090Z,45.23
2023-05-05T06:00:14.016Z,45.62
2023-05-05T06:02:42.658Z,43.79
2023-05-05T06:05:11.158Z,42.66
2023-05-05T06:07:39.053Z,41.84
2023-05-05T06:10:22.924Z,41.25
2023-05-05T06:12:54.407Z,42.17
2023-05-05T06:15:22.363Z,43.14
2023-05-05T06:17:50.195Z,44.08
2023-05-05T06:20:18.713Z,43.33
2023-05-05T06:22:46.567Z,44.17
2023-05-05T06:25:14.514Z,44.28
2023-05-05T06:27:42.401Z,45.13
2023-05-05T06:30:11.031Z,45.46
2023-05-05T06:32:38.860Z,45.92
2023-05-05T06:35:07.900Z,44.97
2023-05-05T06:37:36.120Z,45.21
2023-05-05T06:40:04.897Z,46.27
2023-05-05T06:42:33.238Z,47.97
2023-05-05T06:45:01.717Z,47.74
2023-05-05T06:47:29.553Z,48.58
2023-05-05T06:49:57.368Z,49.19
2023-05-05T06:52:26.367Z,48.35
2023-05-05T06:54:54.194Z,48.47
2023-05-05T06:57:21.944Z,48.76
2023-05-05T06:59:49.819Z,49.42
2023-05-05T07:02:17.623Z,51.41
2023-05-05T07:04:45.517Z,52.40
2023-05-05T07:07:13.360Z,51.39
2023-05-05T07:09:41.752Z,50.79
2023-05-05T07:12:09.547Z,50.55
2023-05-05T07:14:37.307Z,51.36
2023-05-05T07:17:05.567Z,50.46
2023-05-05T07:19:33.627Z,49.62
2023-05-05T07:22:01.618Z,50.66
2023-05-05T07:24:29.502Z,50.97
2023-05-05T07:27:03.361Z,51.28
2023-05-05T07:29:31.702Z,51.29
2023-05-05T07:31:59.551Z,52.82
2023-05-05T07:34:27.874Z,52.26
2023-05-05T07:36:56.632Z,50.36
2023-05-05T07:39:24.494Z,51.40
2023-05-05T07:41:52.454Z,51.47
2023-05-05T07:44:20.734Z,52.30
2023-05-05T07:46:48.795Z,52.68
2023-05-05T07:49:16.797Z,53.20
2023-05-05T07:51:45.176Z,53.35
2023-05-05T07:54:13.177Z,53.55
2023-05-05T07:56:41.060Z,53.85
2023-05-05T07:59:09.013Z,54.02
2023-05-05T08:01:37.333Z,54.43
2023-05-05T08:04:05.766Z,55.31
2023-05-05T08:06:34.012Z,55.97
2023-05-05T08:09:02.895Z,56.40
2023-05-05T08:11:30.707Z,56.94
2023-05-05T08:13:58.812Z,56.68
2023-05-05T08:16:26.658Z,57.22
2023-05-05T08:18:54.515Z,56.93
2023-05-05T08:21:22.551Z,55.97
2023-05-05T08:23:50.571Z,56.41
2023-05-05T08:26:18.375Z,57.68
2023-05-05T08:28:47.143Z,57.26
2023-05-05T08:31:16.134Z,55.75
2023-05-05T08:33:44.019Z,55.77
2023-05-05T08:36:11.936Z,56.42
2023-05-05T08:38:39.773Z,56.85
2023-05-05T08:41:13.218Z,57.48
2023-05-05T08:43:44.384Z,57.30
2023-05-05T08:46:14.792Z,57.95
2023-05-05T08:48:45.140Z,58.23
2023-05-05T08:51:19.802Z,58.15
2023-05-05T08:54:20.597Z,58.77
2023-05-05T08:56:53.274Z,58.56
2023-05-05T08:59:25.248Z,58.16
2023-05-05T09:01:55.874Z,57.93
2023-05-05T09:04:27.068Z,58.24
2023-05-05T09:07:01.536Z,57.60
2023-05-05T09:09:34.643Z,57.37
2023-05-05T09:12:03.087Z,56.59
2023-05-05T09:17:27.504Z,56.19
2023-05-05T09:20:04.845Z,54.39
2023-05-05T09:22:42.096Z,54.48
2023-05-05T09:25:12.778Z,54.91
2023-05-05T09:27:45.913Z,55.10
2023-05-05T09:30:24.556Z,54.74
2023-05-05T09:32:55.332Z,54.95
2023-05-05T09:35:23.762Z,54.44
2023-05-05T09:37:51.638Z,54.10
2023-05-05T09:40:21.485Z,54.14
2023-05-05T09:43:02.720Z,54.89
2023-05-05T09:45:30.780Z,55.57
2023-05-05T09:48:00.399Z,54.53
2023-05-05T09:50:31.147Z,54.70
2023-05-05T09:53:02.127Z,54.17
2023-05-05T09:55:33.458Z,53.60
2023-05-05T09:58:19.557Z,53.53
2023-05-05T10:00:47.839Z,53.00
2023-05-05T10:03:16.412Z,53.12
2023-05-05T10:05:59.842Z,52.92
2023-05-05T10:08:33.886Z,52.62
2023-05-05T10:11:07.022Z,52.58
2023-05-05T10:13:38.264Z,53.25
2023-05-05T10:16:09.777Z,53.39
2023-05-05T10:18:45.978Z,53.26
2023-05-05T10:21:19.123Z,53.13
2023-05-05T10:24:03.003Z,53.22
2023-05-05T10:26:38.146Z,53.30
2023-05-05T10:29:15.093Z,53.14
2023-05-05T10:31:50.162Z,52.82
2023-05-05T10:34:33.255Z,52.27
2023-05-05T10:37:01.542Z,52.58
2023-05-05T10:39:29.554Z,52.69
2023-05-05T10:42:02.482Z,52.17
2023-05-05T10:44:34.420Z,51.95
2023-05-05T10:47:03.021Z,51.85
2023-05-05T10:49:43.085Z,51.92
2023-05-05T10:52:32.354Z,51.63
2023-05-05T10:55:30.487Z,51.04
2023-05-05T10:57:58.398Z,51.17
2023-05-05T11:00:38.430Z,51.81
2023-05-05T11:03:18.492Z,52.12
2023-05-05T11:06:07.815Z,52.17
2023-05-05T11:08:45.767Z,52.28
2023-05-05T11:11:13.806Z,51.68
2023-05-05T11:13:42.072Z,51.75
2023-05-05T11:16:47.940Z,51.90
2023-05-05T11:19:44.519Z,51.44
2023-05-05T11:22:12.467Z,51.55
2023-05-05T11:24:40.815Z,51.63
2023-05-05T11:27:08.866Z,51.77
2023-05-05T11:30:09.384Z,52.21
2023-05-05T11:32:37.580Z,51.87
2023-05-05T11:35:07.272Z,52.28
2023-05-05T11:37:37.581Z,52.13
2023-05-05T11:40:24.130Z,51.31
2023-05-05T11:43:06.002Z,50.75
2023-05-05T11:45:34.709Z,50.28
2023-05-05T11:48:28.684Z,50.55
2023-05-05T11:50:58.150Z,51.25
2023-05-05T11:53:26.227Z,51.03
2023-05-05T11:56:10.950Z,51.08
2023-05-05T11:58:38.851Z,50.89
2023-05-05T12:01:08.656Z,50.62
2023-05-05T12:03:38.347Z,50.88
2023-05-05T12:06:08.382Z,51.11
2023-05-05T12:08:41.423Z,51.21
2023-05-05T12:11:11.357Z,51.03
2023-05-05T12:13:39.244Z,51.05
2023-05-05T12:16:12.938Z,50.46
2023-05-05T12:18:41.683Z,48.89
2023-05-05T12:21:20.617Z,49.75
2023-05-05T12:23:48.474Z,48.90
2023-05-05T12:26:32.551Z,50.71
2023-05-05T12:29:01.224Z,49.51
2023-05-05T12:31:39.245Z,48.37
2023-05-05T12:34:10.476Z,48.76
2023-05-05T12:36:39.713Z,48.92
2023-05-05T12:39:07.491Z,49.15
2023-05-05T12:41:35.974Z,48.48
2023-05-05T12:44:04.500Z,48.87
2023-05-05T12:46:46.122Z,49.78
2023-05-05T12:49:14.473Z,50.82
2023-05-05T12:51:56.818Z,50.00
2023-05-05T12:54:25.214Z,49.78
2023-05-05T12:56:53.054Z,50.24
2023-05-05T12:59:24.230Z,48.86
2023-05-05T13:01:57.400Z,48.79
2023-05-05T13:04:28.581Z,48.60
2023-05-05T13:07:14.997Z,47.58
2023-05-05T13:09:43.093Z,48.82
2023-05-05T13:12:13.708Z,48.78
2023-05-05T13:14:41.977Z,48.52
2023-05-05T13:17:11.498Z,47.97
2023-05-05T13:19:46.524Z,47.37
2023-05-05T13:22:14.605Z,48.22
2023-05-05T13:24:51.846Z,48.67
2023-05-05T13:27:21.489Z,49.93
2023-05-05T13:29:49.303Z,50.08
2023-05-05T13:32:17.203Z,49.44
2023-05-05T13:34:45.010Z,49.03
2023-05-05T13:37:12.848Z,48.13
2023-05-05T13:39:40.803Z,46.85
2023-05-05T13:42:08.816Z,47.69
2023-05-05T13:44:36.822Z,47.89
2023-05-05T13:47:04.851Z,47.53
2023-05-05T13:49:32.632Z,46.65
2023-05-05T13:52:00.548Z,47.51
2023-05-05T13:54:28.400Z,49.04
2023-05-05T13:56:56.254Z,49.32
2023-05-05T13:59:25.980Z,47.78
2023-05-05T14:01:54.129Z,46.77
2023-05-05T14:04:21.976Z,47.21
2023-05-05T14:06:49.829Z,47.65
2023-05-05T14:09:17.666Z,49.48
2023-05-05T14:11:45.496Z,49.83
2023-05-05T14:14:13.362Z,49.90
2023-05-05T14:16:41.107Z,49.56
2023-05-05T14:19:09.055Z,48.39
2023-05-05T14:21:36.830Z,48.28
2023-05-05T14:24:04.972Z,47.52
2023-05-05T14:26:32.738Z,47.35
2023-05-05T14:29:00.640Z,47.54
2023-05-05T14:31:28.853Z,47.60
2023-05-05T14:33:56.626Z,47.34
2023-05-05T14:36:27.219Z,48.27
2023-05-05T14:38:55.058Z,48.20
2023-05-05T14:41:23.057Z,48.84
2023-05-05T14:43:50.810Z,49.22
2023-05-05T14:46:19.005Z,49.36
2023-05-05T14:48:47.426Z,48.32
2023-05-05T14:51:16.036Z,48.38
2023-05-05T14:53:44.014Z,47.06
2023-05-05T14:56:14.405Z,46.08
2023-05-05T14:58:42.234Z,46.47
2023-05-05T15:01:10.073Z,45.57
2023-05-05T15:03:38.008Z,45.22
2023-05-05T15:06:08.599Z,45.52
2023-05-05T15:08:39.086Z,46.05
2023-05-05T15:11:07.097Z,46.40
2023-05-05T15:13:38.657Z,46.56
2023-05-05T15:16:08.022Z,45.85
2023-05-05T15:18:37.678Z,45.44
2023-05-05T15:21:06.373Z,45.67
2023-05-05T15:23:35.380Z,46.43
2023-05-05T15:26:04.593Z,46.89
2023-05-05T15:28:32.663Z,46.71
2023-05-05T15:31:03.386Z,45.64
2023-05-05T15:33:31.277Z,44.52
2023-05-05T15:35:59.578Z,43.90
2023-05-05T15:38:29.227Z,44.34
2023-05-05T15:40:57.125Z,44.60
2023-05-05T15:43:25.580Z,45.94
2023-05-05T15:45:54.865Z,47.39
2023-05-05T15:48:23.759Z,47.21
2023-05-05T15:50:51.746Z,46.41
2023-05-05T15:53:19.577Z,44.77
2023-05-05T15:55:47.375Z,44.67
2023-05-05T15:58:15.189Z,44.99
2023-05-05T16:00:43.095Z,44.77
2023-05-05T16:03:11.719Z,45.48
2023-05-05T16:05:39.795Z,46.66
2023-05-05T16:08:10.041Z,47.42
2023-05-05T16:10:38.146Z,48.24
2023-05-05T16:13:06.332Z,48.45
2023-05-05T16:15:36.032Z,49.79
2023-05-05T16:18:05.047Z,49.64
2023-05-05T16:20:33.844Z,49.20
2023-05-05T16:23:02.078Z,49.20
2023-05-05T16:25:29.834Z,49.17
2023-05-05T16:27:57.843Z,49.77
2023-05-05T16:30:26.206Z,50.49
2023-05-05T16:32:54.900Z,50.68
2023-05-05T16:35:23.881Z,51.07
2023-05-05T16:37:52.962Z,51.65
2023-05-05T16:40:20.763Z,52.46
2023-05-05T16:42:49.180Z,52.83
2023-05-05T16:45:16.986Z,52.90
2023-05-05T16:47:45.712Z,53.12
2023-05-05T16:50:13.871Z,53.17
2023-05-05T16:52:41.643Z,53.79
2023-05-05T16:55:09.846Z,54.81
2023-05-05T16:57:38.151Z,55.34
2023-05-05T17:00:08.696Z,56.05
2023-05-05T17:02:36.981Z,56.37
2023-05-05T17:05:06.005Z,57.90
2023-05-05T17:07:34.565Z,58.26
2023-05-05T17:10:02.594Z,58.36
2023-05-05T17:12:30.583Z,58.39
2023-05-05T17:14:58.390Z,58.83
2023-05-05T17:17:26.383Z,59.80
2023-05-05T17:19:54.337Z,59.87
2023-05-05T17:22:22.254Z,60.01
2023-05-05T17:24:50.945Z,59.39
2023-05-05T17:27:18.875Z,59.80
2023-05-05T17:29:46.765Z,59.49
2023-05-05T17:32:15.098Z,59.24
2023-05-05T17:34:43.018Z,59.48
2023-05-05T17:37:11.211Z,60.37
2023-05-05T17:39:39.025Z,60.32
2023-05-05T17:42:06.787Z,60.31
2023-05-05T17:44:34.638Z,59.75
2023-05-05T17:47:04.051Z,59.49
2023-05-05T17:49:31.904Z,59.67
2023-05-05T17:51:59.820Z,60.28
2023-05-05T17:54:37.569Z,61.07
2023-05-05T17:57:05.448Z,61.09
2023-05-05T17:59:33.330Z,60.97
2023-05-05T18:02:01.340Z,61.56
2023-05-05T18:04:29.250Z,62.15
2023-05-05T18:06:57.583Z,63.53
2023-05-05T18:09:26.857Z,63.36
2023-05-05T18:11:54.959Z,61.83
2023-05-05T18:14:23.951Z,58.48
2023-05-05T18:16:52.516Z,57.42
2023-05-05T18:19:23.474Z,58.28
2023-05-05T18:21:53.228Z,59.49
2023-05-05T18:24:21.355Z,61.27
2023-05-05T18:26:51.982Z,61.70
2023-05-05T18:29:22.007Z,62.80
2023-05-05T18:31:53.221Z,63.18
2023-05-05T18:34:21.497Z,62.39
2023-05-05T18:36:53.614Z,61.92
2023-05-05T18:39:21.616Z,60.58
2023-05-05T18:41:49.768Z,57.99
2023-05-05T18:44:19.781Z,57.96
2023-05-05T18:46:48.267Z,59.25
2023-05-05T18:49:16.458Z,60.76
2023-05-05T18:51:44.313Z,63.19
2023-05-05T18:54:12.257Z,63.99
2023-05-05T18:56:40.146Z,63.38
2023-05-05T18:59:08.067Z,61.83
2023-05-05T19:01:35.900Z,60.84
2023-05-05T19:04:06.924Z,58.72
2023-05-05T19:06:39.176Z,58.53
2023-05-05T19:09:07.061Z,60.86
2023-05-05T19:11:34.875Z,63.11
2023-05-05T19:14:02.712Z,64.21
2023-05-05T19:16:30.894Z,63.82
2023-05-05T19:19:00.953Z,62.23
2023-05-05T19:21:28.821Z,61.12
2023-05-05T19:23:59.297Z,60.78
2023-05-05T19:26:27.417Z,60.75
2023-05-05T19:28:55.262Z,60.15
2023-05-05T19:31:27.874Z,60.43
2023-05-05T19:34:01.615Z,60.22
2023-05-05T19:36:32.320Z,58.17
2023-05-05T19:39:04.537Z,57.99
2023-05-05T19:41:35.704Z,60.07
2023-05-05T19:44:04.106Z,62.43
2023-05-05T19:46:32.075Z,63.71
2023-05-05T19:48:59.983Z,63.26
2023-05-05T19:51:28.065Z,61.80
2023-05-05T19:53:55.994Z,60.87
2023-05-05T19:56:24.174Z,60.96
2023-05-05T19:58:53.095Z,61.03
2023-05-05T20:01:21.033Z,61.12
2023-05-05T20:03:49.047Z,61.43
2023-05-05T20:06:17.220Z,62.23
2023-05-05T20:08:45.077Z,62.47
2023-05-05T20:11:16.277Z,62.96
2023-05-05T20:13:44.318Z,62.91
2023-05-05T20:16:12.555Z,63.26
2023-05-05T20:18:40.653Z,63.17
2023-05-05T20:21:08.567Z,62.94
2023-05-05T20:23:37.321Z,62.56
2023-05-05T20:26:05.206Z,62.72
2023-05-05T20:28:33.191Z,62.42
2023-05-05T20:31:01.152Z,63.02
2023-05-05T20:33:29.385Z,63.42
2023-05-05T20:35:57.473Z,64.30
2023-05-05T20:38:25.309Z,63.46
2023-05-05T20:40:53.246Z,63.25
2023-05-05T20:43:21.301Z,63.08
2023-05-05T20:45:49.144Z,63.37
2023-05-05T20:48:16.971Z,62.17
2023-05-05T20:50:44.765Z,61.88
2023-05-05T20:53:16.188Z,62.42
2023-05-05T20:55:43.957Z,61.72
2023-05-05T20:58:11.889Z,60.98
2023-05-05T21:00:39.864Z,61.03
2023-05-05T21:03:07.911Z,60.88
2023-05-05T21:05:37.353Z,61.51
2023-05-05T21:08:05.824Z,61.67
2023-05-05T21:10:34.020Z,61.76
2023-05-05T21:13:03.244Z,61.93
2023-05-05T21:15:32.092Z,62.44
2023-05-05T21:17:59.869Z,62.02
2023-05-05T21:20:27.725Z,60.55
2023-05-05T21:22:56.812Z,59.95
2023-05-05T21:25:25.250Z,61.02
2023-05-05T21:27:53.267Z,61.84
2023-05-05T21:30:23.705Z,61.41
2023-05-05T21:32:52.428Z,62.90
2023-05-05T21:35:20.288Z,62.93
2023-05-05T21:37:49.024Z,61.06
2023-05-05T21:40:16.940Z,62.76
2023-05-05T21:42:44.814Z,62.49
2023-05-05T21:45:12.699Z,61.47
2023-05-05T21:47:40.514Z,59.46
2023-05-05T21:50:10.274Z,58.41
2023-05-05T21:52:38.465Z,59.53
2023-05-05T21:55:07.007Z,63.84
2023-05-05T21:57:34.883Z,65.10
2023-05-05T22:00:05.817Z,65.43
2023-05-05T22:02:33.986Z,65.88
2023-05-05T22:05:01.837Z,65.68
2023-05-05T22:07:31.065Z,65.51
2023-05-05T22:10:00.083Z,66.07
2023-05-05T22:12:27.846Z,65.99
2023-05-05T22:14:55.658Z,66.38
2023-05-05T22:17:23.557Z,66.09
2023-05-05T22:19:51.304Z,65.99
2023-05-05T22:22:19.030Z,66.01
2023-05-05T22:24:46.827Z,67.39
2023-05-05T22:27:14.611Z,69.33
2023-05-05T22:29:42.786Z,68.32
2023-05-05T22:32:10.531Z,66.50
2023-05-05T22:34:38.337Z,66.17
2023-05-05T22:37:06.228Z,65.34
2023-05-05T22:39:34.135Z,62.86
2023-05-05T22:42:02.041Z,62.45
2023-05-05T22:44:29.932Z,62.99
2023-05-05T22:46:57.722Z,64.27
2023-05-05T22:49:25.611Z,64.89
2023-05-05T22:51:53.867Z,65.37
2023-05-05T22:54:21.645Z,66.19
2023-05-05T22:56:49.806Z,66.86
2023-05-05T22:59:17.565Z,67.66
2023-05-05T23:01:45.315Z,68.01
2023-05-05T23:04:13.238Z,67.75
2023-05-05T23:06:42.016Z,68.18
2023-05-05T23:09:09.797Z,68.45
2023-05-05T23:11:37.626Z,68.35
2023-05-05T23:14:05.450Z,68.39
2023-05-05T23:16:33.278Z,68.82
2023-05-05T23:19:01.136Z,68.77
2023-05-05T23:21:29.370Z,68.99
2023-05-05T23:23:59.932Z,68.77
2023-05-05T23:26:27.692Z,68.96
2023-05-05T23:28:55.462Z,68.94
2023-05-05T23:31:23.447Z,69.36
2023-05-05T23:33:51.359Z,69.43
2023-05-05T23:36:19.172Z,69.61
2023-05-05T23:38:46.881Z,69.55
2023-05-05T23:41:14.703Z,69.49
2023-05-05T23:43:42.457Z,69.41
2023-05-05T23:46:10.222Z,69.59
2023-05-05T23:48:38.037Z,69.79
2023-05-05T23:51:05.877Z,69.79
2023-05-05T23:53:33.838Z,69.77
2023-05-05T23:56:01.692Z,70.02
2023-05-05T23:58:29.463Z,70.34
